Time;durP1;ratioP1;P1;durP2;ratioP2;P2;SDS_P1;SDS_P2;PMS_P1;PMS_P2;Temp;Humidity;BMP_temperature;BMP_pressure;BME280_temperature;BME280_humidity;BME280_pressure;Samples;Min_cycle;Max_cycle;Signal;HPM_P1;HPM_P2
2022/08/09 00:00:03;;;;;;;7.90;3.42;;;;;;;19.29;48.17;101917.19;7400413;19;20019;-68
2022/08/09 00:02:32;;;;;;;4.65;3.20;;;;;;;19.26;48.04;101917.31;7398793;19;20401;-67
2022/08/09 00:05:03;;;;;;;7.05;3.50;;;;;;;19.24;47.95;101918.28;7398174;19;20022;-68
2022/08/09 00:07:32;;;;;;;4.18;3.55;;;;;;;19.20;48.24;101912.22;7399965;19;20481;-68
2022/08/09 00:10:01;;;;;;;7.95;3.47;;;;;;;19.19;48.33;101911.34;7399812;19;20018;-67
2022/08/09 00:12:29;;;;;;;7.70;3.53;;;;;;;19.15;48.59;101914.22;7400121;19;20019;-67
2022/08/09 00:14:58;;;;;;;6.80;3.70;;;;;;;19.12;48.40;101916.97;7397381;19;20022;-68
2022/08/09 00:17:26;;;;;;;6.07;3.80;;;;;;;19.08;48.54;101910.91;7398963;19;20010;-67
2022/08/09 00:20:01;;;;;;;5.85;3.65;;;;;;;19.04;49.05;101909.28;7399823;19;20025;-68
2022/08/09 00:22:32;;;;;;;6.35;3.72;;;;;;;19.02;48.95;101913.81;7398723;19;20063;-69
2022/08/09 00:25:01;;;;;;;6.05;3.60;;;;;;;18.99;48.75;101912.16;7398446;19;20035;-67
2022/08/09 00:27:29;;;;;;;4.75;3.72;;;;;;;18.96;49.13;101912.25;7399251;19;20027;-67
2022/08/09 00:29:58;;;;;;;5.03;3.80;;;;;;;18.95;49.21;101920.28;7398594;19;20011;-67
2022/08/09 00:32:26;;;;;;;6.90;3.70;;;;;;;18.94;49.35;101915.91;7397531;19;20031;-68
2022/08/09 00:34:55;;;;;;;4.78;3.22;;;;;;;18.91;49.48;101908.91;7397492;19;20018;-67
2022/08/09 00:37:24;;;;;;;7.45;3.55;;;;;;;18.87;49.26;101910.78;7399294;19;20027;-68
2022/08/09 00:39:55;;;;;;;5.90;3.20;;;;;;;18.83;49.52;101906.50;7396901;19;20014;-68
2022/08/09 00:42:23;;;;;;;3.30;3.00;;;;;;;18.80;49.55;101908.41;7397957;19;20430;-67
2022/08/09 00:44:52;;;;;;;6.63;3.40;;;;;;;18.76;49.92;101906.81;7396266;19;20427;-67
2022/08/09 00:47:20;;;;;;;5.70;3.33;;;;;;;18.73;50.17;101908.66;7398942;19;20019;-67
2022/08/09 00:49:49;;;;;;;5.40;3.45;;;;;;;18.71;50.09;101905.16;7396037;19;20018;-67
2022/08/09 00:52:17;;;;;;;4.90;3.08;;;;;;;18.70;49.94;101915.84;7398664;19;20036;-68
2022/08/09 00:54:47;;;;;;;4.40;3.33;;;;;;;18.69;50.05;101919.44;7397030;19;20027;-67
2022/08/09 00:57:18;;;;;;;4.30;3.00;;;;;;;18.68;50.12;101915.06;7396352;19;20018;-67
2022/08/09 00:59:47;;;;;;;6.10;3.28;;;;;;;18.66;50.24;101924.88;7396077;19;20032;-68
2022/08/09 01:02:21;;;;;;;3.33;2.95;;;;;;;18.64;50.56;101916.97;7397844;19;20378;-67
2022/08/09 01:04:56;;;;;;;5.57;2.95;;;;;;;18.63;50.69;101917.88;7396890;19;20031;-68
2022/08/09 01:07:33;;;;;;;7.32;3.20;;;;;;;18.61;50.40;101917.06;7398736;19;20037;-68
2022/08/09 01:10:06;;;;;;;5.35;3.28;;;;;;;18.58;50.54;101917.19;7398629;19;20035;-67
2022/08/09 01:12:46;;;;;;;5.75;3.25;;;;;;;18.54;50.39;101919.09;7398546;19;20015;-67
2022/08/09 01:15:18;;;;;;;6.05;3.45;;;;;;;18.51;50.61;101919.22;7396127;19;20023;-68
2022/08/09 01:17:53;;;;;;;4.90;3.17;;;;;;;18.50;51.03;101916.59;7397538;19;20039;-68
2022/08/09 01:20:29;;;;;;;6.25;3.25;;;;;;;18.45;50.85;101913.25;7397638;19;20014;-67
2022/08/09 01:23:13;;;;;;;5.72;3.20;;;;;;;18.39;51.18;101920.50;7396106;19;20019;-68
2022/08/09 01:25:57;;;;;;;6.03;4.03;;;;;;;18.35;51.26;101918.00;7397327;19;20017;-68
2022/08/09 01:28:29;;;;;;;5.75;3.70;;;;;;;18.34;51.16;101918.97;7397664;19;20353;-68
2022/08/09 01:31:01;;;;;;;7.07;3.20;;;;;;;18.32;50.96;101910.16;7394477;19;20023;-68
2022/08/09 01:33:36;;;;;;;3.53;3.03;;;;;;;18.31;51.05;101913.72;7397518;19;20039;-68
2022/08/09 01:36:08;;;;;;;4.20;3.00;;;;;;;18.28;51.35;101920.03;7397322;19;20372;-67
2022/08/09 01:38:41;;;;;;;5.10;2.80;;;;;;;18.27;51.44;101914.78;7396922;19;20027;-67
2022/08/09 01:41:20;;;;;;;4.40;3.03;;;;;;;18.22;51.49;101907.84;7396813;19;20014;-68
2022/08/09 01:43:53;;;;;;;3.70;3.10;;;;;;;18.19;51.55;101909.75;7395038;19;20025;-67
2022/08/09 01:46:25;;;;;;;3.83;3.35;;;;;;;18.15;51.64;101914.28;7397461;19;20116;-67
2022/08/09 01:48:55;;;;;;;3.80;3.25;;;;;;;18.10;52.04;101920.66;7396812;19;20022;-67
2022/08/09 01:51:25;;;;;;;4.90;3.85;;;;;;;18.03;52.02;101922.66;7394886;19;20383;-68
2022/08/09 01:53:57;;;;;;;4.88;3.38;;;;;;;17.96;52.26;101924.69;7395864;19;20455;-67
2022/08/09 01:56:28;;;;;;;8.38;3.75;;;;;;;17.86;52.41;101924.09;7396715;19;20014;-67
2022/08/09 01:59:03;;;;;;;4.22;3.20;;;;;;;17.79;52.81;101929.66;7396886;19;20037;-67
2022/08/09 02:01:35;;;;;;;6.75;3.42;;;;;;;17.69;52.62;101929.97;7394574;19;20015;-68
2022/08/09 02:04:06;;;;;;;7.20;3.55;;;;;;;17.64;53.32;101937.22;7395147;19;20022;-68
2022/08/09 02:09:20;;;;;;;4.55;3.60;;;;;;;17.53;53.25;101934.03;7396454;19;20424;-67
2022/08/09 02:11:49;;;;;;;7.45;4.78;;;;;;;17.49;53.65;101932.38;7394976;19;20403;-68
2022/08/09 02:14:23;;;;;;;4.07;3.40;;;;;;;17.45;53.80;101933.41;7395118;19;20022;-68
2022/08/09 02:16:54;;;;;;;5.78;3.60;;;;;;;17.40;53.84;101920.25;7394365;19;20415;-67
2022/08/09 02:19:23;;;;;;;4.70;3.85;;;;;;;17.36;54.07;101935.44;7393759;19;20014;-67
2022/08/09 02:21:57;;;;;;;5.57;3.70;;;;;;;17.33;54.19;101935.50;7395825;19;20022;-68
2022/08/09 02:24:33;;;;;;;5.55;3.58;;;;;;;17.30;54.19;101929.44;7394188;19;20035;-68
2022/08/09 02:27:06;;;;;;;5.88;3.50;;;;;;;17.26;54.11;101931.31;7396115;19;20378;-67
2022/08/09 02:29:42;;;;;;;5.18;3.92;;;;;;;17.23;54.40;101934.94;7395306;19;20502;-67
2022/08/09 02:32:13;;;;;;;6.15;3.88;;;;;;;17.17;54.49;101937.75;7394012;19;20019;-68
2022/08/09 02:34:47;;;;;;;6.53;3.83;;;;;;;17.12;54.42;101931.72;7394454;19;20022;-68
2022/08/09 02:37:19;;;;;;;7.47;3.65;;;;;;;17.09;54.90;101932.69;7394100;19;20026;-67
2022/08/09 02:39:58;;;;;;;6.85;3.97;;;;;;;17.04;54.99;101934.63;7393380;19;20531;-66
2022/08/09 02:42:32;;;;;;;5.32;3.95;;;;;;;17.00;55.28;101930.34;7392850;19;20549;-67
2022/08/09 02:45:05;;;;;;;;;;;;;;;16.98;55.04;101932.16;7394419;19;20035;-67
2022/08/09 02:47:36;;;;;;;5.60;4.20;;;;;;;16.96;54.86;101936.66;7395606;19;19926;-67
2022/08/09 02:50:07;;;;;;;5.40;3.83;;;;;;;16.93;55.34;101934.97;7395072;19;20022;-67
2022/08/09 02:52:40;;;;;;;7.05;3.85;;;;;;;16.91;55.28;101928.81;7394934;19;20050;-67
2022/08/09 02:55:11;;;;;;;5.45;3.40;;;;;;;16.89;55.35;101927.09;7392910;19;20018;-68
2022/08/09 02:57:41;;;;;;;4.95;4.13;;;;;;;16.88;55.58;101928.00;7395092;19;20031;-67
2022/08/09 03:00:14;;;;;;;8.85;4.68;;;;;;;16.85;55.77;101925.47;7394230;19;20432;-67
2022/08/09 03:02:45;;;;;;;5.25;4.15;;;;;;;16.83;55.85;101927.28;7392836;19;20022;-67
2022/08/09 03:05:15;;;;;;;5.30;3.92;;;;;;;16.81;55.94;101922.03;7392299;19;20038;-67
2022/08/09 03:07:45;;;;;;;8.63;4.10;;;;;;;16.81;56.23;101931.75;7392016;19;20481;-68
2022/08/09 03:10:15;;;;;;;6.35;4.55;;;;;;;16.81;56.20;101934.38;7394327;19;20019;-67
2022/08/09 03:12:45;;;;;;;5.07;3.80;;;;;;;16.83;56.21;101938.72;7393028;19;20015;-67
2022/08/09 03:15:19;;;;;;;5.47;3.58;;;;;;;16.84;56.36;101929.03;7392779;19;20014;-68
2022/08/09 03:17:48;;;;;;;6.25;4.28;;;;;;;16.83;56.25;101930.78;7394260;19;20021;-67
2022/08/09 03:20:17;;;;;;;5.30;4.03;;;;;;;16.84;56.46;101931.66;7392113;19;20018;-67
2022/08/09 03:22:46;;;;;;;4.13;3.72;;;;;;;16.81;56.29;101937.94;7393280;19;20028;-67
2022/08/09 03:25:15;;;;;;;6.05;3.80;;;;;;;16.77;56.36;101942.44;7391911;19;20018;-67
2022/08/09 03:27:44;;;;;;;6.35;4.35;;;;;;;16.74;56.47;101945.19;7393742;19;20489;-67
2022/08/09 03:30:17;;;;;;;6.95;4.43;;;;;;;16.73;56.64;101940.81;7392850;19;20025;-68
2022/08/09 03:32:46;;;;;;;5.00;4.20;;;;;;;16.74;56.55;101942.53;7394691;19;20039;-68
2022/08/09 03:35:15;;;;;;;5.60;4.00;;;;;;;16.76;56.85;101946.00;7391541;19;20015;-67
2022/08/09 03:37:44;;;;;;;6.03;4.20;;;;;;;16.76;56.88;101947.78;7392952;19;20010;-67
2022/08/09 03:40:14;;;;;;;5.95;3.80;;;;;;;16.76;56.66;101950.44;7393421;19;20018;-67
2022/08/09 03:42:43;;;;;;;8.82;4.63;;;;;;;16.75;57.05;101949.56;7392922;19;20374;-67
2022/08/09 03:45:13;;;;;;;4.80;4.20;;;;;;;16.73;57.03;101951.41;7391619;19;20019;-66
2022/08/09 03:47:44;;;;;;;10.40;7.40;;;;;;;16.75;56.99;101949.56;7393316;19;20018;-67
2022/08/09 03:50:13;;;;;;;5.13;4.43;;;;;;;16.78;57.14;101959.19;7393757;19;20015;-67
2022/08/09 03:52:44;;;;;;;6.63;4.03;;;;;;;16.77;57.10;101962.78;7393455;19;20028;-67
2022/08/09 03:55:15;;;;;;;5.95;3.42;;;;;;;16.73;57.27;101961.13;7398147;19;20022;-67
2022/08/09 03:57:44;;;;;;;6.97;5.10;;;;;;;16.71;57.42;101966.47;7400688;19;20077;-68
2022/08/09 04:00:14;;;;;;;7.90;3.90;;;;;;;16.70;57.57;101970.03;7399741;19;20015;-68
2022/08/09 04:02:46;;;;;;;6.00;4.35;;;;;;;16.70;57.48;101966.50;7399654;19;20018;-67
2022/08/09 04:05:16;;;;;;;7.72;4.47;;;;;;;16.69;57.63;101965.63;7397289;19;20014;-67
2022/08/09 04:07:44;;;;;;;7.07;4.35;;;;;;;16.72;57.54;101964.66;7399691;19;20027;-67
2022/08/09 04:10:13;;;;;;;4.55;3.95;;;;;;;16.76;57.74;101967.19;7399329;19;20018;-67
2022/08/09 04:12:47;;;;;;;6.45;4.60;;;;;;;16.77;57.38;101968.94;7399067;19;20015;-66
2022/08/09 04:15:17;;;;;;;5.85;3.72;;;;;;;16.81;57.44;101975.03;7397229;19;20018;-66
2022/08/09 04:17:48;;;;;;;5.05;4.38;;;;;;;16.82;57.34;101974.13;7399744;19;20081;-66
2022/08/09 04:20:17;;;;;;;8.82;4.93;;;;;;;16.86;57.38;101972.25;7396765;19;20032;-66
2022/08/09 04:22:47;;;;;;;6.03;4.43;;;;;;;16.89;57.19;101972.16;7397024;19;20019;-67
2022/08/09 04:25:16;;;;;;;5.95;4.20;;;;;;;16.93;57.49;101973.84;7397237;19;20086;-67
2022/08/09 04:27:44;;;;;;;5.60;4.22;;;;;;;16.98;57.48;101974.56;7399241;19;20040;-67
2022/08/09 04:30:18;;;;;;;9.27;5.55;;;;;;;17.02;57.42;101973.59;7399450;19;20031;-67
2022/08/09 04:32:49;;;;;;;7.18;4.53;;;;;;;17.07;57.26;101970.78;7398800;19;20359;-67
2022/08/09 04:35:18;;;;;;;6.25;4.15;;;;;;;17.08;56.98;101972.53;7395866;19;20360;-67
2022/08/09 04:37:48;;;;;;;6.00;4.15;;;;;;;17.10;56.75;101976.00;7398731;19;20035;-68
2022/08/09 04:40:16;;;;;;;5.78;3.83;;;;;;;17.12;56.86;101978.59;7398983;19;20014;-66
2022/08/09 04:42:45;;;;;;;5.82;3.95;;;;;;;17.13;56.74;101985.66;7398687;19;20078;-67
2022/08/09 04:45:13;;;;;;;6.18;4.32;;;;;;;17.13;57.16;101983.00;7395739;19;20431;-67
2022/08/09 04:47:42;;;;;;;6.32;4.03;;;;;;;17.12;56.99;101983.91;7398490;19;20019;-67
2022/08/09 04:50:13;;;;;;;5.50;4.32;;;;;;;17.13;56.92;101985.66;7398333;19;20421;-67
2022/08/09 04:52:48;;;;;;;7.75;4.70;;;;;;;17.15;56.79;101990.00;7397802;19;20035;-68
2022/08/09 04:55:17;;;;;;;5.43;3.65;;;;;;;17.16;56.94;101988.19;7396146;19;20066;-67
2022/08/09 04:57:45;;;;;;;11.45;4.32;;;;;;;17.16;56.81;101990.84;7397794;19;20019;-67
2022/08/09 05:00:15;;;;;;;6.55;4.13;;;;;;;17.17;57.10;101993.44;7396912;19;20514;-67
2022/08/09 05:02:44;;;;;;;4.10;3.60;;;;;;;17.18;57.09;101992.53;7397805;19;20035;-67
2022/08/09 05:05:15;;;;;;;4.70;4.30;;;;;;;17.20;57.27;102011.94;7393184;19;20484;-67
2022/08/09 05:07:44;;;;;;;5.88;4.07;;;;;;;17.23;56.97;102011.84;7398388;19;20403;-67
2022/08/09 05:10:13;;;;;;;5.45;3.90;;;;;;;17.23;57.32;102010.97;7397412;19;20023;-66
2022/08/09 05:12:42;;;;;;;11.48;4.20;;;;;;;17.24;57.10;102010.06;7395552;19;20014;-67
2022/08/09 05:15:11;;;;;;;6.18;4.40;;;;;;;17.25;57.06;101996.75;7396133;19;20022;-67
2022/08/09 05:17:39;;;;;;;4.53;3.67;;;;;;;17.29;57.23;102009.91;7396652;19;20018;-66
2022/08/09 05:20:10;;;;;;;9.10;3.80;;;;;;;17.31;57.01;102011.59;7397146;19;20382;-68
2022/08/09 05:22:41;;;;;;;6.03;4.03;;;;;;;17.34;57.11;102010.63;7397566;19;20025;-67
2022/08/09 05:25:11;;;;;;;4.30;3.38;;;;;;;17.37;57.18;102011.41;7395095;19;20015;-67
2022/08/09 05:27:39;;;;;;;6.40;4.38;;;;;;;17.43;57.07;102013.03;7397163;19;20492;-67
2022/08/09 05:30:09;;;;;;;4.75;3.92;;;;;;;17.48;56.97;102015.53;7396921;19;20014;-67
2022/08/09 05:32:44;;;;;;;6.00;4.10;;;;;;;17.52;57.06;102017.19;7395230;19;20027;-67
2022/08/09 05:35:13;;;;;;;6.15;3.95;;;;;;;17.53;57.00;102016.28;7395097;19;20039;-67
2022/08/09 05:37:44;;;;;;;6.80;3.85;;;;;;;17.57;57.07;102016.13;7396620;19;20082;-67
2022/08/09 05:40:14;;;;;;;7.07;5.13;;;;;;;17.61;56.72;102019.56;7393872;19;20027;-67
2022/08/09 05:42:42;;;;;;;10.35;5.95;;;;;;;17.67;56.89;102023.81;7396072;19;20426;-68
2022/08/09 05:45:12;;;;;;;10.55;4.40;;;;;;;17.70;56.52;102018.41;7394966;19;20022;-67
2022/08/09 05:47:41;;;;;;;5.70;4.03;;;;;;;17.74;56.83;102025.34;7396773;19;20022;-67
2022/08/09 05:50:11;;;;;;;5.45;4.32;;;;;;;17.75;56.33;102027.97;7396334;19;20085;-67
2022/08/09 05:52:39;;;;;;;6.65;3.75;;;;;;;17.75;56.45;102027.97;7394950;19;20094;-67
2022/08/09 05:55:12;;;;;;;14.68;9.73;;;;;;;17.80;56.36;102018.97;7394421;19;20014;-67
2022/08/09 05:57:40;;;;;;;9.20;5.40;;;;;;;17.86;56.32;102029.41;7396166;19;20116;-67
2022/08/09 06:00:11;;;;;;;8.02;4.55;;;;;;;17.91;56.40;102028.34;7396299;19;20029;-67
2022/08/09 06:02:40;;;;;;;9.27;4.35;;;;;;;17.97;56.14;102023.78;7394650;19;20011;-67
2022/08/09 06:05:10;;;;;;;7.70;3.90;;;;;;;18.00;55.92;102027.19;7393973;19;20045;-67
2022/08/09 06:07:39;;;;;;;8.82;4.30;;;;;;;18.08;55.79;102026.94;7393713;19;20015;-67
2022/08/09 06:10:08;;;;;;;7.13;4.43;;;;;;;18.12;55.85;102031.25;7393609;19;20023;-68
2022/08/09 06:12:39;;;;;;;7.10;4.47;;;;;;;18.18;56.08;102032.81;7395029;19;20458;-67
2022/08/09 06:15:09;;;;;;;11.25;4.68;;;;;;;18.24;55.94;102032.63;7394170;19;20510;-67
2022/08/09 06:17:37;;;;;;;12.40;5.03;;;;;;;18.33;55.74;102039.41;7394671;19;20386;-67
2022/08/09 06:20:07;;;;;;;4.97;3.72;;;;;;;18.40;55.46;102043.63;7395238;19;20035;-68
2022/08/09 06:22:35;;;;;;;6.53;3.95;;;;;;;18.45;55.52;102054.06;7395634;19;20031;-67
2022/08/09 06:25:04;;;;;;;6.45;4.32;;;;;;;18.49;55.28;102050.41;7392785;19;20103;-67
2022/08/09 06:27:32;;;;;;;6.60;4.15;;;;;;;18.54;55.34;102051.13;7392664;19;20336;-67
2022/08/09 06:30:03;;;;;;;7.85;4.00;;;;;;;18.60;55.28;102055.34;7393711;19;20035;-68
2022/08/09 06:32:32;;;;;;;6.85;3.83;;;;;;;18.68;55.34;102053.28;7393200;19;20372;-68
2022/08/09 06:35:00;;;;;;;8.98;3.88;;;;;;;18.74;55.44;102055.72;7392502;19;20387;-68
2022/08/09 06:37:29;;;;;;;5.60;3.97;;;;;;;18.81;55.64;102067.88;7394959;19;20031;-68
2022/08/09 06:39:57;;;;;;;8.43;3.67;;;;;;;18.86;55.25;102057.06;7394639;19;20014;-68
2022/08/09 06:42:26;;;;;;;7.60;3.65;;;;;;;18.92;55.33;102056.91;7394795;19;20028;-68
2022/08/09 06:44:54;;;;;;;7.05;4.18;;;;;;;18.99;54.96;102050.44;7392436;19;20035;-68
2022/08/09 06:47:26;;;;;;;5.47;3.83;;;;;;;19.07;55.04;102057.25;7393382;19;20015;-68
2022/08/09 06:49:54;;;;;;;4.70;3.42;;;;;;;19.15;55.22;102060.50;7394648;19;20019;-68
2022/08/09 06:52:23;;;;;;;5.82;3.40;;;;;;;19.19;54.87;102067.44;7394821;19;20018;-69
2022/08/09 06:54:51;;;;;;;6.13;3.50;;;;;;;19.22;54.56;102062.00;7393458;19;20023;-68
2022/08/09 06:57:20;;;;;;;5.68;3.55;;;;;;;19.32;54.87;102067.84;7392914;19;20032;-68
2022/08/09 06:59:48;;;;;;;7.80;3.67;;;;;;;19.43;54.73;102070.13;7394269;19;20067;-68
2022/08/09 07:02:17;;;;;;;7.25;4.30;;;;;;;19.54;54.28;102065.25;7394357;19;20066;-68
2022/08/09 07:04:48;;;;;;;4.20;3.50;;;;;;;19.64;53.90;102063.97;7392385;19;20082;-68
2022/08/09 07:07:17;;;;;;;7.25;3.45;;;;;;;19.73;53.88;102065.41;7394743;19;20081;-68
2022/08/09 07:09:46;;;;;;;6.80;3.70;;;;;;;19.80;53.53;102068.66;7393941;19;20022;-68
2022/08/09 07:12:15;;;;;;;9.77;3.97;;;;;;;19.88;52.91;102061.28;7393556;19;20022;-68
2022/08/09 07:14:43;;;;;;;8.77;3.97;;;;;;;19.94;53.31;102069.03;7392102;19;20039;-68
2022/08/09 07:17:13;;;;;;;8.18;4.00;;;;;;;20.01;53.01;102069.66;7391324;19;20032;-68
2022/08/09 07:19:41;;;;;;;5.75;3.60;;;;;;;20.05;53.05;102068.59;7392366;19;20018;-67
2022/08/09 07:22:12;;;;;;;5.45;3.67;;;;;;;20.08;53.02;102068.47;7393601;19;20015;-68
2022/08/09 07:24:41;;;;;;;12.98;3.58;;;;;;;20.12;52.49;102067.41;7392870;19;20032;-67
2022/08/09 07:27:12;;;;;;;6.97;3.90;;;;;;;20.14;52.43;102072.69;7393240;19;20189;-68
2022/08/09 07:29:40;;;;;;;6.43;4.03;;;;;;;20.15;52.72;102077.94;7398283;19;20023;-68
2022/08/09 07:32:15;;;;;;;6.57;3.83;;;;;;;20.16;52.65;102071.69;7397927;19;20043;-67
2022/08/09 07:34:44;;;;;;;4.85;3.50;;;;;;;20.22;52.11;102078.56;7398477;19;20022;-67
2022/08/09 07:37:15;;;;;;;7.63;3.72;;;;;;;20.26;52.41;102080.16;7399540;19;20023;-67
2022/08/09 07:39:44;;;;;;;4.60;3.75;;;;;;;20.29;51.88;102080.03;7396813;19;20517;-68
2022/08/09 07:42:13;;;;;;;6.95;3.83;;;;;;;20.33;51.61;102083.44;7397419;19;20019;-68
2022/08/09 07:44:41;;;;;;;5.68;3.83;;;;;;;20.40;51.20;102081.41;7397728;19;20018;-68
2022/08/09 07:47:10;;;;;;;4.47;3.65;;;;;;;20.47;51.12;102077.53;7400321;19;20104;-67
2022/08/09 07:49:38;;;;;;;5.63;4.20;;;;;;;20.55;51.50;102088.75;7399773;19;20022;-67
2022/08/09 07:52:07;;;;;;;5.03;3.40;;;;;;;20.64;50.87;102083.00;7396820;19;20015;-68
2022/08/09 07:54:39;;;;;;;5.75;4.00;;;;;;;20.71;50.78;102080.97;7397927;19;20050;-68
2022/08/09 07:57:08;;;;;;;4.80;3.00;;;;;;;20.81;50.55;102078.78;7399727;19;20022;-68
2022/08/09 07:59:37;;;;;;;7.40;4.32;;;;;;;20.89;50.69;102081.09;7399780;19;20035;-68
2022/08/09 08:02:05;;;;;;;6.57;3.72;;;;;;;20.96;50.68;102077.22;7396539;19;20019;-68
2022/08/09 08:04:35;;;;;;;6.45;3.60;;;;;;;21.02;49.99;102081.44;7397408;19;20018;-68
2022/08/09 08:07:03;;;;;;;5.85;3.17;;;;;;;21.08;50.08;102082.03;7398703;19;20019;-67
2022/08/09 08:09:32;;;;;;;11.18;4.07;;;;;;;21.14;49.48;102080.88;7399874;19;20022;-68
2022/08/09 08:12:03;;;;;;;6.50;3.75;;;;;;;21.20;49.57;102071.75;7398400;19;20031;-68
2022/08/09 08:14:32;;;;;;;5.45;3.40;;;;;;;21.24;49.83;102066.16;7396954;19;20014;-68
2022/08/09 08:17:01;;;;;;;8.98;3.30;;;;;;;21.32;49.51;102072.03;7396970;19;20015;-68
2022/08/09 08:19:29;;;;;;;9.77;3.70;;;;;;;21.39;49.17;102072.59;7398056;19;20042;-68
2022/08/09 08:21:57;;;;;;;6.13;3.80;;;;;;;21.46;49.00;102079.41;7395979;19;20082;-68
2022/08/09 08:24:26;;;;;;;6.97;3.60;;;;;;;21.49;48.50;102068.56;7396847;19;20029;-68
2022/08/09 08:26:54;;;;;;;9.60;3.78;;;;;;;21.52;48.13;102070.25;7398409;19;20019;-68
2022/08/09 08:29:26;;;;;;;3.60;3.00;;;;;;;21.57;47.96;102070.94;7395469;19;20018;-68
2022/08/09 08:31:54;;;;;;;9.32;3.42;;;;;;;21.63;48.37;102065.31;7395691;19;20071;-68
2022/08/09 08:34:22;;;;;;;5.35;3.53;;;;;;;21.68;47.96;102064.22;7395585;19;20488;-69
2022/08/09 08:36:51;;;;;;;3.78;2.90;;;;;;;21.77;48.16;102063.75;7398834;19;20023;-67
2022/08/09 08:39:19;;;;;;;9.95;3.70;;;;;;;21.84;47.42;102067.00;7397656;19;20032;-67
2022/08/09 08:41:48;;;;;;;9.15;3.72;;;;;;;21.87;47.21;102069.53;7398300;19;20097;-68
2022/08/09 08:44:18;;;;;;;7.22;3.17;;;;;;;21.91;47.30;102068.44;7397163;19;20019;-67
2022/08/09 08:46:50;;;;;;;8.25;3.03;;;;;;;21.97;46.75;102070.81;7398030;19;20025;-67
2022/08/09 08:49:20;;;;;;;4.65;3.15;;;;;;;22.06;45.85;102080.19;7398507;19;20376;-66
2022/08/09 08:51:49;;;;;;;7.55;3.05;;;;;;;22.13;45.68;102082.47;7398665;19;20018;-67
2022/08/09 08:54:18;;;;;;;5.20;3.10;;;;;;;22.21;45.56;102082.09;7397411;19;20022;-68
2022/08/09 08:56:47;;;;;;;5.18;3.40;;;;;;;22.28;45.26;102075.50;7395885;19;20032;-67
2022/08/09 08:59:16;;;;;;;7.18;2.80;;;;;;;22.35;44.91;102069.84;7395846;19;20481;-67
2022/08/09 09:01:45;;;;;;;4.85;3.80;;;;;;;22.42;45.12;102074.84;7398257;19;20039;-67
2022/08/09 09:04:19;;;;;;;5.25;3.20;;;;;;;22.49;45.07;102071.84;7396287;19;20427;-67
2022/08/09 09:06:51;;;;;;;5.18;2.90;;;;;;;22.56;44.09;102079.47;7394797;19;20019;-67
2022/08/09 09:09:22;;;;;;;7.22;3.15;;;;;;;22.63;44.49;102068.47;7397687;19;20017;-67
2022/08/09 09:11:51;;;;;;;9.98;3.17;;;;;;;22.67;44.10;102075.38;7396434;19;20019;-67
2022/08/09 09:14:24;;;;;;;6.00;3.05;;;;;;;22.71;43.97;102075.16;7396620;19;20023;-67
2022/08/09 09:16:54;;;;;;;4.93;2.83;;;;;;;22.75;43.82;102073.19;7397324;19;20498;-67
2022/08/09 09:19:25;;;;;;;5.80;3.08;;;;;;;22.78;43.46;102067.66;7397280;19;20015;-67
2022/08/09 09:22:02;;;;;;;5.85;3.00;;;;;;;22.85;43.75;102073.53;7397209;19;20371;-68
2022/08/09 09:24:31;;;;;;;6.38;3.03;;;;;;;22.91;43.77;102070.53;7395025;19;20091;-67
2022/08/09 09:27:02;;;;;;;7.28;3.58;;;;;;;22.99;43.63;102063.00;7396389;19;20540;-67
2022/08/09 09:29:32;;;;;;;5.90;3.13;;;;;;;23.09;43.18;102066.03;7395770;19;20070;-70
2022/08/09 09:32:01;;;;;;;9.43;2.97;;;;;;;23.16;42.58;102072.81;7396183;19;20016;-70
2022/08/09 09:34:33;;;;;;;5.55;2.63;;;;;;;23.18;41.65;102062.88;7396288;19;20182;-70
2022/08/09 09:37:02;;;;;;;3.97;2.72;;;;;;;23.24;41.91;102064.34;7396268;19;20014;-70
2022/08/09 09:39:32;;;;;;;6.72;2.70;;;;;;;23.26;41.41;102065.16;7396134;19;20014;-71
2022/08/09 09:42:01;;;;;;;5.13;3.40;;;;;;;23.29;41.27;102062.31;7396051;19;20023;-70
2022/08/09 09:44:33;;;;;;;5.00;3.30;;;;;;;23.33;41.33;102063.88;7394808;19;20037;-70
2022/08/09 09:47:08;;;;;;;4.97;2.70;;;;;;;23.35;40.25;102066.47;7394435;19;20015;-70
2022/08/09 09:49:40;;;;;;;6.15;3.30;;;;;;;23.40;41.52;102062.59;7395953;19;20413;-70
2022/08/09 09:52:10;;;;;;;6.03;2.97;;;;;;;23.47;40.95;102056.88;7393124;19;20014;-70
2022/08/09 09:54:42;;;;;;;7.80;2.80;;;;;;;23.52;41.10;102058.34;7394295;19;20022;-70
2022/08/09 09:57:17;;;;;;;4.97;3.10;;;;;;;23.57;41.31;102058.97;7395004;19;20046;-70
2022/08/09 09:59:46;;;;;;;3.20;2.70;;;;;;;23.63;41.63;102049.69;7396177;19;20018;-70
2022/08/09 10:02:17;;;;;;;4.15;3.05;;;;;;;23.70;40.83;102051.09;7396256;19;20474;-70
2022/08/09 10:05:05;;;;;;;4.57;2.95;;;;;;;23.78;40.11;102045.28;7394449;19;20021;-71
2022/08/09 10:07:34;;;;;;;5.88;3.13;;;;;;;23.84;40.33;102046.75;7394086;19;20011;-69
2022/08/09 10:10:02;;;;;;;5.90;2.83;;;;;;;23.93;40.36;102056.13;7395204;19;20018;-69
2022/08/09 10:12:34;;;;;;;8.05;2.97;;;;;;;24.01;40.28;102053.84;7395031;19;20014;-68
2022/08/09 10:15:10;;;;;;;5.75;3.30;;;;;;;24.04;39.22;102046.50;7393112;19;20015;-69
2022/08/09 10:17:41;;;;;;;6.55;3.22;;;;;;;24.07;38.99;102040.97;7393929;19;20015;-68
2022/08/09 10:20:25;;;;;;;9.00;2.97;;;;;;;24.08;38.74;102045.34;7395886;19;20508;-69
2022/08/09 10:22:59;;;;;;;7.45;2.65;;;;;;;24.13;39.18;102042.41;7395857;19;20023;-69
2022/08/09 10:25:28;;;;;;;;;;;;;;;24.20;39.19;102049.16;7392488;19;20485;-69
2022/08/09 10:27:57;;;;;;;4.90;2.83;;;;;;;24.28;39.19;102040.66;7394624;19;19933;-70
2022/08/09 10:30:26;;;;;;;6.63;3.70;;;;;;;24.36;38.75;102042.88;7395038;19;20019;-70
2022/08/09 10:32:54;;;;;;;10.55;3.63;;;;;;;24.48;38.94;102030.53;7394586;19;20010;-70
2022/08/09 10:35:26;;;;;;;8.48;2.85;;;;;;;24.56;38.25;102036.31;7393141;19;20018;-69
2022/08/09 10:37:55;;;;;;;4.80;2.83;;;;;;;24.66;38.07;102042.00;7393910;19;20082;-69
2022/08/09 10:40:24;;;;;;;8.35;3.25;;;;;;;24.70;37.98;102038.19;7394453;19;20018;-68
2022/08/09 10:42:52;;;;;;;8.75;3.25;;;;;;;24.75;37.58;102045.97;7394132;19;20021;-69
2022/08/09 10:45:23;;;;;;;5.43;3.00;;;;;;;24.77;37.56;102031.50;7392678;19;20019;-69
2022/08/09 10:48:03;;;;;;;5.70;2.80;;;;;;;24.82;36.79;102026.69;7393221;19;20014;-69
2022/08/09 10:53:40;;;;;;;4.38;2.40;;;;;;;24.96;35.81;102024.97;7393968;19;20495;-69
2022/08/09 10:56:17;;;;;;;3.78;2.90;;;;;;;25.01;36.20;102028.22;7393857;19;20015;-70
2022/08/09 10:58:46;;;;;;;4.97;2.55;;;;;;;25.11;36.20;102028.50;7395490;19;20015;-69
2022/08/09 11:01:40;;;;;;;3.80;2.40;;;;;;;25.20;35.93;102026.09;7392126;19;20015;-68
2022/08/09 11:04:20;;;;;;;;;;;;;;;25.29;35.12;102018.44;7399057;19;20086;-69
2022/08/09 11:07:24;;;;;;;6.68;2.58;;;;;;;25.40;35.42;102021.28;7399963;19;19942;-69
2022/08/09 11:09:56;;;;;;;3.50;2.78;;;;;;;25.51;35.16;102012.53;7397774;19;20021;-69
2022/08/09 11:12:26;;;;;;;5.28;2.70;;;;;;;25.61;35.01;102012.81;7401392;19;20094;-68
2022/08/09 11:14:56;;;;;;;4.28;2.47;;;;;;;25.75;34.78;102009.22;7398527;19;20509;-69
2022/08/09 11:17:53;;;;;;;3.38;2.53;;;;;;;25.83;32.82;102015.81;7401420;19;20026;-69
2022/08/09 11:20:41;;;;;;;4.85;2.60;;;;;;;25.93;33.63;102010.69;7401370;19;20037;-69
2022/08/09 11:23:09;;;;;;;5.75;2.97;;;;;;;26.06;34.36;102012.56;7401431;19;20031;-69
2022/08/09 11:25:43;;;;;;;5.43;2.40;;;;;;;26.20;33.63;102014.31;7400613;19;20022;-69
2022/08/09 11:28:37;;;;;;;5.93;2.35;;;;;;;26.33;32.52;102017.88;7401926;19;20010;-69
2022/08/09 11:31:44;;;;;;;3.22;2.58;;;;;;;26.45;32.90;102013.47;7401263;19;20038;-70
2022/08/09 11:34:22;;;;;;;3.67;2.78;;;;;;;26.55;32.01;102017.28;7400132;19;20063;-70
2022/08/09 11:36:53;;;;;;;3.97;2.60;;;;;;;26.68;32.87;102014.56;7401492;19;20011;-70
2022/08/09 11:39:22;;;;;;;6.95;4.38;;;;;;;26.80;32.16;102016.44;7401153;19;20090;-69
2022/08/09 11:41:54;;;;;;;5.20;2.75;;;;;;;26.92;31.76;102011.16;7397420;19;20022;-69
2022/08/09 11:44:42;;;;;;;4.47;3.40;;;;;;;27.04;31.85;102010.25;7398124;19;20018;-69
2022/08/09 11:47:11;;;;;;;6.50;2.85;;;;;;;27.19;31.47;102013.66;7396515;19;20422;-69
2022/08/09 11:50:01;;;;;;;6.30;2.88;;;;;;;27.32;31.24;102013.63;7397566;19;20018;-69